createdAt,value
2023-05-09T00:00:23.428Z,0.10
2023-05-09T00:02:25.496Z,0.10
2023-05-09T00:04:27.029Z,0.13
2023-05-09T00:06:28.512Z,0.10
2023-05-09T00:08:29.997Z,0.10
2023-05-09T00:10:31.464Z,0.10
2023-05-09T00:12:32.975Z,0.10
2023-05-09T00:14:34.721Z,0.10
2023-05-09T00:16:38.745Z,0.10
2023-05-09T00:18:42.261Z,0.10
2023-05-09T00:20:44.369Z,0.10
2023-05-09T00:22:45.889Z,0.20
2023-05-09T00:24:47.902Z,0.10
2023-05-09T00:26:49.340Z,0.10
2023-05-09T00:28:50.876Z,0.00
2023-05-09T00:30:52.300Z,0.10
2023-05-09T00:32:53.789Z,0.10
2023-05-09T00:34:55.266Z,0.10
2023-05-09T00:36:56.623Z,0.00
2023-05-09T00:38:58.137Z,0.10
2023-05-09T00:40:59.566Z,0.10
2023-05-09T00:43:01.001Z,0.10
2023-05-09T00:45:02.487Z,0.10
2023-05-09T00:47:03.984Z,0.10
2023-05-09T00:49:05.727Z,0.10
2023-05-09T00:51:07.425Z,0.10
2023-05-09T00:53:09.180Z,0.10
2023-05-09T00:55:10.701Z,0.10
2023-05-09T00:57:12.132Z,0.00
2023-05-09T00:59:13.845Z,0.00
2023-05-09T01:01:16.710Z,0.10
2023-05-09T01:03:18.450Z,0.00
2023-05-09T01:05:20.405Z,0.10
2023-05-09T01:07:26.931Z,0.10
2023-05-09T01:09:32.851Z,0.10
2023-05-09T01:11:52.998Z,0.00
2023-05-09T01:14:01.482Z,0.10
2023-05-09T01:16:09.069Z,0.10
2023-05-09T01:18:30.139Z,0.00
2023-05-09T01:20:46.443Z,0.10
2023-05-09T01:22:51.625Z,0.10
2023-05-09T01:25:07.250Z,0.10
2023-05-09T01:27:18.698Z,0.10
2023-05-09T01:29:29.053Z,0.00
2023-05-09T01:31:31.185Z,0.10
2023-05-09T01:33:33.741Z,0.10
2023-05-09T01:35:37.513Z,0.10
2023-05-09T01:37:42.061Z,0.10
2023-05-09T01:39:46.632Z,0.10
2023-05-09T01:41:49.647Z,0.00
2023-05-09T01:43:52.126Z,0.08
2023-05-09T01:45:53.774Z,0.00
2023-05-09T01:47:56.191Z,0.05
2023-05-09T01:49:58.367Z,0.10
2023-05-09T01:52:01.312Z,0.00
2023-05-09T01:54:03.953Z,0.10
2023-05-09T01:56:06.821Z,0.03
2023-05-09T01:58:08.419Z,0.00
2023-05-09T02:00:10.702Z,0.00
2023-05-09T02:02:12.512Z,0.00
2023-05-09T02:04:15.854Z,0.10
2023-05-09T02:06:18.192Z,0.10
2023-05-09T02:08:21.258Z,0.05
2023-05-09T02:10:22.895Z,0.00
2023-05-09T02:12:26.812Z,0.00
2023-05-09T02:14:28.229Z,0.10
2023-05-09T02:16:30.100Z,0.10
2023-05-09T02:18:32.798Z,0.00
2023-05-09T02:20:37.203Z,0.13
2023-05-09T02:22:39.840Z,0.10
2023-05-09T02:24:42.412Z,0.10
2023-05-09T02:26:43.880Z,0.00
2023-05-09T02:28:45.735Z,0.10
2023-05-09T02:30:47.389Z,0.00
2023-05-09T02:32:50.505Z,0.10
2023-05-09T02:34:52.712Z,0.10
2023-05-09T02:36:54.180Z,0.00
2023-05-09T02:38:55.968Z,0.10
2023-05-09T02:40:57.443Z,0.00
2023-05-09T02:42:58.924Z,0.13
2023-05-09T02:45:00.337Z,0.10
2023-05-09T02:47:05.363Z,0.08
2023-05-09T02:49:06.923Z,0.10
2023-05-09T02:51:08.370Z,0.00
2023-05-09T02:53:10.029Z,0.10
2023-05-09T02:55:11.634Z,0.10
2023-05-09T02:57:13.061Z,0.10
2023-05-09T02:59:14.446Z,0.10
2023-05-09T03:01:15.856Z,0.10
2023-05-09T03:03:18.250Z,0.00
2023-05-09T03:05:20.027Z,0.00
2023-05-09T03:07:21.472Z,0.10
2023-05-09T03:09:22.852Z,0.10
2023-05-09T03:11:24.332Z,0.10
2023-05-09T03:13:25.854Z,0.10
2023-05-09T03:15:27.419Z,0.10
2023-05-09T03:17:28.879Z,0.00
2023-05-09T03:19:30.447Z,0.10
2023-05-09T03:21:32.132Z,0.00
2023-05-09T03:23:33.576Z,0.10
2023-05-09T03:25:34.957Z,0.10
2023-05-09T03:27:36.546Z,0.10
2023-05-09T03:29:38.040Z,0.00
2023-05-09T03:31:39.516Z,0.10
2023-05-09T03:33:41.054Z,0.10
2023-05-09T03:35:42.494Z,0.00
2023-05-09T03:37:43.973Z,0.08
2023-05-09T03:39:45.536Z,0.00
2023-05-09T03:41:46.950Z,0.10
2023-05-09T03:43:48.440Z,0.03
2023-05-09T03:45:49.860Z,0.10
2023-05-09T03:47:51.351Z,0.10
2023-05-09T03:49:53.657Z,0.03
2023-05-09T03:51:55.705Z,0.10
2023-05-09T03:53:57.130Z,0.10
2023-05-09T03:55:58.504Z,0.00
2023-05-09T03:57:59.957Z,0.03
2023-05-09T04:00:01.585Z,0.00
2023-05-09T04:02:03.624Z,0.10
2023-05-09T04:04:05.156Z,0.10
2023-05-09T04:06:06.926Z,0.10
2023-05-09T04:08:08.336Z,0.00
2023-05-09T04:10:10.065Z,0.00
2023-05-09T04:12:11.497Z,0.00
2023-05-09T04:14:12.999Z,0.10
2023-05-09T04:16:14.502Z,0.05
2023-05-09T04:18:16.101Z,0.00
2023-05-09T04:20:17.680Z,0.05
2023-05-09T04:22:19.053Z,0.03
2023-05-09T04:24:20.452Z,0.10
2023-05-09T04:26:22.590Z,0.00
2023-05-09T04:28:24.065Z,0.10
2023-05-09T04:30:27.125Z,0.05
2023-05-09T04:32:28.597Z,0.00
2023-05-09T04:34:30.125Z,0.00
2023-05-09T04:36:33.785Z,0.00
2023-05-09T04:38:35.228Z,0.00
2023-05-09T04:40:36.731Z,0.00
2023-05-09T04:42:38.701Z,0.00
2023-05-09T04:44:40.578Z,0.10
2023-05-09T04:46:42.083Z,0.10
2023-05-09T04:48:43.570Z,0.00
2023-05-09T04:50:45.167Z,0.00
2023-05-09T04:52:46.675Z,0.10
2023-05-09T04:54:48.108Z,0.05
2023-05-09T04:56:50.697Z,0.00
2023-05-09T04:58:52.764Z,0.05
2023-05-09T05:00:54.385Z,0.10
2023-05-09T05:02:56.075Z,0.05
2023-05-09T05:05:10.156Z,0.03
2023-05-09T05:07:12.864Z,0.00
2023-05-09T05:09:14.510Z,0.00
2023-05-09T05:11:17.962Z,0.00
2023-05-09T05:13:19.464Z,0.00
2023-05-09T05:15:20.966Z,0.03
2023-05-09T05:17:22.530Z,0.00
2023-05-09T05:19:24.040Z,0.00
2023-05-09T05:21:25.527Z,0.10
2023-05-09T05:23:27.550Z,0.00
2023-05-09T05:25:29.107Z,0.10
2023-05-09T05:27:30.660Z,0.05
2023-05-09T05:29:32.061Z,0.00
2023-05-09T05:31:33.486Z,0.10
2023-05-09T05:33:34.978Z,0.10
2023-05-09T05:35:36.666Z,0.00
2023-05-09T05:37:41.315Z,0.00
2023-05-09T05:39:42.728Z,0.10
2023-05-09T05:41:44.263Z,0.00
2023-05-09T05:43:45.714Z,0.00
2023-05-09T05:45:47.228Z,0.03
2023-05-09T05:47:48.730Z,0.10
2023-05-09T05:49:50.592Z,0.00
2023-05-09T05:51:52.077Z,0.00
2023-05-09T05:53:53.522Z,0.00
2023-05-09T05:55:54.965Z,0.00
2023-05-09T05:57:56.510Z,0.10
2023-05-09T05:59:57.984Z,0.10
2023-05-09T06:01:59.411Z,0.00
2023-05-09T06:04:00.926Z,0.10
2023-05-09T06:06:02.403Z,0.00
2023-05-09T06:08:03.995Z,0.00
2023-05-09T06:10:05.768Z,0.00
2023-05-09T06:12:07.319Z,0.00
2023-05-09T06:14:08.740Z,0.00
2023-05-09T06:18:15.225Z,0.00
2023-05-09T06:20:16.667Z,0.05
2023-05-09T06:22:18.067Z,0.00
2023-05-09T06:24:31.835Z,0.00
2023-05-09T06:26:36.558Z,0.00
2023-05-09T06:28:38.683Z,0.00
2023-05-09T06:30:40.111Z,0.00
2023-05-09T06:32:41.685Z,0.10
2023-05-09T06:34:43.165Z,0.08
2023-05-09T06:36:44.585Z,0.10
2023-05-09T06:38:46.281Z,0.10
2023-05-09T06:40:47.730Z,0.10
2023-05-09T06:42:49.172Z,0.10
2023-05-09T06:44:50.676Z,0.10
2023-05-09T06:46:52.065Z,0.10
2023-05-09T06:48:53.418Z,0.00
2023-05-09T06:50:54.807Z,0.00
2023-05-09T06:52:56.252Z,0.00
2023-05-09T06:54:57.616Z,0.00
2023-05-09T06:56:59.489Z,0.10
2023-05-09T06:59:00.965Z,0.00
2023-05-09T07:01:02.488Z,0.00
2023-05-09T07:03:04.276Z,0.10
2023-05-09T07:05:06.203Z,0.00
2023-05-09T07:07:07.763Z,0.00
2023-05-09T07:09:09.456Z,0.10
2023-05-09T07:11:10.954Z,0.00
2023-05-09T07:13:13.404Z,0.00
2023-05-09T07:15:22.756Z,0.00
2023-05-09T07:17:30.524Z,0.10
2023-05-09T07:19:31.951Z,0.10
2023-05-09T07:21:34.312Z,0.00
2023-05-09T07:23:35.799Z,0.05
2023-05-09T07:25:37.205Z,0.10
2023-05-09T07:27:38.705Z,0.00
2023-05-09T07:29:40.277Z,0.05
2023-05-09T07:31:41.666Z,0.00
2023-05-09T07:33:43.224Z,0.05
2023-05-09T07:35:45.070Z,0.10
2023-05-09T07:37:46.807Z,0.00
2023-05-09T07:39:48.295Z,0.10
2023-05-09T07:41:49.710Z,0.03
2023-05-09T07:43:51.077Z,0.00
2023-05-09T07:45:52.486Z,0.00
2023-05-09T07:47:54.184Z,0.03
2023-05-09T07:49:55.670Z,0.00
2023-05-09T07:51:57.111Z,0.00
2023-05-09T07:53:58.490Z,0.00
2023-05-09T07:56:00.404Z,0.00
2023-05-09T07:58:02.266Z,0.10
2023-05-09T08:00:06.251Z,0.00
2023-05-09T08:02:07.865Z,0.10
2023-05-09T08:04:09.902Z,0.00
2023-05-09T08:06:11.408Z,0.00
2023-05-09T08:08:12.973Z,0.10
2023-05-09T08:10:14.455Z,0.00
2023-05-09T08:12:15.893Z,0.00
2023-05-09T08:14:17.381Z,0.00
2023-05-09T08:16:19.019Z,0.10
2023-05-09T08:18:20.456Z,0.10
2023-05-09T08:20:21.923Z,0.10
2023-05-09T08:22:23.387Z,0.10
2023-05-09T08:24:24.794Z,0.00
2023-05-09T08:26:27.172Z,0.10
2023-05-09T08:28:28.817Z,0.00
2023-05-09T08:30:30.414Z,0.10
2023-05-09T08:32:34.650Z,0.00
2023-05-09T08:34:36.559Z,0.10
2023-05-09T08:36:38.022Z,0.00
2023-05-09T08:38:40.534Z,0.10
2023-05-09T08:40:42.551Z,0.10
2023-05-09T08:42:45.774Z,0.00
2023-05-09T08:44:47.264Z,0.10
2023-05-09T08:46:49.653Z,0.00
2023-05-09T08:48:51.462Z,0.00
2023-05-09T08:50:53.028Z,0.10
2023-05-09T08:52:54.599Z,0.00
2023-05-09T08:54:56.523Z,0.00
2023-05-09T08:56:58.234Z,0.00
2023-05-09T08:58:59.762Z,0.03
2023-05-09T09:01:04.540Z,0.00
2023-05-09T09:03:06.516Z,0.10
2023-05-09T09:05:19.592Z,0.08
2023-05-09T09:07:31.260Z,0.10
2023-05-09T09:09:32.992Z,0.00
2023-05-09T09:11:35.165Z,0.00
2023-05-09T09:13:38.411Z,0.10
2023-05-09T09:15:41.372Z,0.10
2023-05-09T09:17:43.481Z,0.10
2023-05-09T09:19:45.949Z,0.10
2023-05-09T09:21:49.721Z,0.00
2023-05-09T09:23:52.457Z,0.10
2023-05-09T09:25:59.544Z,0.10
2023-05-09T09:28:01.417Z,0.05
2023-05-09T09:30:09.500Z,0.10
2023-05-09T09:32:11.211Z,0.10
2023-05-09T09:34:14.539Z,0.10
2023-05-09T09:36:16.166Z,0.10
2023-05-09T09:38:21.033Z,0.00
2023-05-09T09:40:24.207Z,0.03
2023-05-09T09:42:25.674Z,0.10
2023-05-09T09:44:27.801Z,0.10
2023-05-09T09:46:29.288Z,0.10
2023-05-09T09:48:33.521Z,0.10
2023-05-09T09:50:35.416Z,0.00
2023-05-09T09:52:37.220Z,0.03
2023-05-09T09:54:38.840Z,0.10
2023-05-09T09:56:47.268Z,0.10
2023-05-09T09:58:48.833Z,0.00
2023-05-09T10:01:10.664Z,0.10
2023-05-09T10:03:16.641Z,0.10
2023-05-09T10:05:19.465Z,0.10
2023-05-09T10:07:23.190Z,0.00
2023-05-09T10:09:27.016Z,0.00
2023-05-09T10:11:28.446Z,0.10
2023-05-09T10:13:30.000Z,0.00
2023-05-09T10:15:41.384Z,0.20
2023-05-09T10:17:47.652Z,0.10
2023-05-09T10:19:52.247Z,0.10
2023-05-09T10:21:55.269Z,0.10
2023-05-09T10:23:56.852Z,0.08
2023-05-09T10:26:03.113Z,0.10
2023-05-09T10:28:07.032Z,0.00
2023-05-09T10:30:11.132Z,0.10
2023-05-09T10:32:25.734Z,0.08
2023-05-09T10:34:30.624Z,0.10
2023-05-09T10:36:32.641Z,0.10
2023-05-09T10:38:34.848Z,0.08
2023-05-09T10:40:36.314Z,0.10
2023-05-09T10:42:37.913Z,0.00
2023-05-09T10:44:39.662Z,0.00
2023-05-09T10:46:41.611Z,0.10
2023-05-09T10:48:43.534Z,0.10
2023-05-09T10:50:46.480Z,0.00
2023-05-09T10:53:11.089Z,0.10
2023-05-09T10:55:12.903Z,0.10
2023-05-09T10:57:18.271Z,0.10
2023-05-09T10:59:32.792Z,0.00
2023-05-09T11:01:37.022Z,0.05
2023-05-09T11:03:51.219Z,0.10
2023-05-09T11:05:54.287Z,0.00
2023-05-09T11:08:14.303Z,0.05
2023-05-09T11:10:20.150Z,0.10
2023-05-09T11:12:24.040Z,0.00
2023-05-09T11:14:39.286Z,0.00
2023-05-09T11:16:57.225Z,0.10
2023-05-09T11:18:58.656Z,0.08
2023-05-09T11:21:06.805Z,0.10
2023-05-09T11:23:08.788Z,0.00
2023-05-09T11:25:12.724Z,0.10
2023-05-09T11:27:24.421Z,0.10
2023-05-09T11:29:30.044Z,0.10
2023-05-09T11:31:31.592Z,0.10
2023-05-09T11:33:35.835Z,0.03
2023-05-09T11:35:37.517Z,0.10
2023-05-09T11:37:46.912Z,0.10
2023-05-09T11:39:58.837Z,0.13
2023-05-09T11:42:00.482Z,0.47
2023-05-09T11:44:01.920Z,0.20
2023-05-09T11:46:03.969Z,0.10
2023-05-09T11:48:08.957Z,0.20
2023-05-09T11:50:11.561Z,0.10
2023-05-09T11:52:12.984Z,0.00
2023-05-09T11:54:14.834Z,0.10
2023-05-09T11:56:16.602Z,0.10
2023-05-09T11:58:18.259Z,0.10
2023-05-09T12:00:21.101Z,0.10
2023-05-09T12:02:22.823Z,0.10
2023-05-09T12:04:24.731Z,0.10
2023-05-09T12:06:26.376Z,0.10
2023-05-09T12:08:28.595Z,0.10
2023-05-09T12:10:30.118Z,0.10
2023-05-09T12:12:33.579Z,0.10
2023-05-09T12:14:35.055Z,0.10
2023-05-09T12:16:44.881Z,0.10
2023-05-09T12:18:47.312Z,0.03
2023-05-09T12:20:50.322Z,0.20
2023-05-09T12:22:57.696Z,0.10
2023-05-09T12:25:05.688Z,0.10
2023-05-09T12:27:08.335Z,0.10
2023-05-09T12:29:09.925Z,0.10
2023-05-09T12:31:11.543Z,0.10
2023-05-09T12:33:13.364Z,0.10
2023-05-09T12:35:16.384Z,0.00
2023-05-09T12:37:18.681Z,0.10
2023-05-09T12:39:22.378Z,0.10
2023-05-09T12:41:36.920Z,0.10
2023-05-09T12:43:40.893Z,0.10
2023-05-09T12:45:42.274Z,0.10
2023-05-09T12:47:45.355Z,0.10
2023-05-09T12:49:50.476Z,0.10
2023-05-09T12:51:53.447Z,0.10
2023-05-09T12:53:54.980Z,0.10
2023-05-09T12:56:00.048Z,0.10
2023-05-09T12:58:02.686Z,0.10
2023-05-09T13:00:06.490Z,0.10
2023-05-09T13:02:08.002Z,0.10
2023-05-09T13:04:12.535Z,0.00
2023-05-09T13:06:14.535Z,0.15
2023-05-09T13:08:16.050Z,0.10
2023-05-09T13:10:24.156Z,0.00
2023-05-09T13:12:26.316Z,0.10
2023-05-09T13:14:27.877Z,0.10
2023-05-09T13:16:29.454Z,0.00
2023-05-09T13:18:31.337Z,0.00
2023-05-09T13:20:32.847Z,0.00
2023-05-09T13:22:34.364Z,0.10
2023-05-09T13:24:35.838Z,0.03
2023-05-09T13:26:37.397Z,0.10
2023-05-09T13:28:38.941Z,0.10
2023-05-09T13:30:40.479Z,0.10
2023-05-09T13:32:41.997Z,0.00
2023-05-09T13:34:43.491Z,0.10
2023-05-09T13:36:45.314Z,0.10
2023-05-09T13:38:46.970Z,0.15
2023-05-09T13:40:48.371Z,0.10
2023-05-09T13:42:49.873Z,0.10
2023-05-09T13:44:51.370Z,0.00
2023-05-09T13:46:52.812Z,0.10
2023-05-09T13:48:55.263Z,0.10
2023-05-09T13:50:57.739Z,0.05
2023-05-09T13:52:59.293Z,0.10
2023-05-09T13:55:00.711Z,0.10
2023-05-09T13:57:03.387Z,0.03
2023-05-09T13:59:05.845Z,0.00
2023-05-09T14:01:07.771Z,0.10
2023-05-09T14:03:09.347Z,0.10
2023-05-09T14:05:10.828Z,0.10
2023-05-09T14:07:13.570Z,0.00
2023-05-09T14:09:15.674Z,0.10
2023-05-09T14:11:17.155Z,0.03
2023-05-09T14:13:18.650Z,0.10
2023-05-09T14:15:20.347Z,0.08
2023-05-09T14:17:21.788Z,0.10
2023-05-09T14:19:23.564Z,0.00
2023-05-09T14:21:25.144Z,0.10
2023-05-09T14:23:26.734Z,0.10
2023-05-09T14:25:28.235Z,0.10
2023-05-09T14:27:30.052Z,0.17
2023-05-09T14:29:31.920Z,0.10
2023-05-09T14:31:33.436Z,0.10
2023-05-09T14:33:36.024Z,0.00
2023-05-09T14:35:39.648Z,0.10
2023-05-09T14:37:42.902Z,0.17
2023-05-09T14:39:45.181Z,0.00
2023-05-09T14:41:49.851Z,0.10
2023-05-09T14:43:52.362Z,0.10
2023-05-09T14:45:53.970Z,0.00
2023-05-09T14:47:55.452Z,0.10
2023-05-09T14:49:57.101Z,0.10
2023-05-09T14:51:58.612Z,0.10
2023-05-09T14:54:02.486Z,0.00
2023-05-09T14:56:06.740Z,0.10
2023-05-09T14:58:08.819Z,0.10
2023-05-09T15:00:21.154Z,0.10
2023-05-09T15:02:23.862Z,0.10
2023-05-09T15:04:30.384Z,0.10
2023-05-09T15:06:32.051Z,0.10
2023-05-09T15:08:35.545Z,0.15
2023-05-09T15:10:37.273Z,0.08
2023-05-09T15:12:38.860Z,0.10
2023-05-09T15:14:40.350Z,0.10
2023-05-09T15:16:41.942Z,0.15
2023-05-09T15:18:43.880Z,0.10
2023-05-09T15:20:45.553Z,0.20
2023-05-09T15:22:47.856Z,0.10
2023-05-09T15:24:49.277Z,0.08
2023-05-09T15:26:50.849Z,0.10
2023-05-09T15:28:52.484Z,0.10
2023-05-09T15:30:54.161Z,0.10
2023-05-09T15:32:56.187Z,0.10
2023-05-09T15:34:57.729Z,0.10
2023-05-09T15:36:59.293Z,0.10
2023-05-09T15:39:00.865Z,0.10
2023-05-09T15:41:03.024Z,0.10
2023-05-09T15:43:07.930Z,0.13
2023-05-09T15:45:10.048Z,0.15
2023-05-09T15:47:11.617Z,0.10
2023-05-09T15:49:13.079Z,0.10
2023-05-09T15:51:14.966Z,0.10
2023-05-09T15:53:16.523Z,0.20
2023-05-09T15:55:18.188Z,0.10
2023-05-09T15:57:19.766Z,0.10
2023-05-09T15:59:21.352Z,0.10
2023-05-09T16:01:23.091Z,0.20
2023-05-09T16:03:25.028Z,0.20
2023-05-09T16:05:26.775Z,0.20
2023-05-09T16:07:28.234Z,0.10
2023-05-09T16:09:29.756Z,0.20
2023-05-09T16:11:31.531Z,0.30
2023-05-09T16:13:35.643Z,0.20
2023-05-09T16:15:37.481Z,0.30
2023-05-09T16:17:39.010Z,0.20
2023-05-09T16:19:40.985Z,0.20
2023-05-09T16:21:46.036Z,0.20
2023-05-09T16:23:47.613Z,0.20
2023-05-09T16:25:49.828Z,0.20
2023-05-09T16:27:51.305Z,0.30
2023-05-09T16:29:52.825Z,0.20
2023-05-09T16:31:54.249Z,0.20
2023-05-09T16:33:55.815Z,0.20
2023-05-09T16:35:58.157Z,0.30
2023-05-09T16:37:59.582Z,0.22
2023-05-09T16:40:01.160Z,0.20
2023-05-09T16:42:03.868Z,0.20
2023-05-09T16:44:05.354Z,0.10
2023-05-09T16:46:07.132Z,0.20
2023-05-09T16:48:08.714Z,0.20
2023-05-09T16:50:10.558Z,0.20
2023-05-09T16:52:12.297Z,0.10
2023-05-09T16:54:13.670Z,0.22
2023-05-09T16:56:15.044Z,0.10
2023-05-09T16:58:16.968Z,0.20
2023-05-09T17:00:18.658Z,0.10
2023-05-09T17:02:20.132Z,0.10
2023-05-09T17:04:21.587Z,0.20
2023-05-09T17:06:23.055Z,0.20
2023-05-09T17:08:24.503Z,0.20
2023-05-09T17:10:26.172Z,0.17
2023-05-09T17:12:27.735Z,0.17
2023-05-09T17:14:29.900Z,0.20
2023-05-09T17:16:31.460Z,0.13
2023-05-09T17:18:37.766Z,0.20
2023-05-09T17:20:39.581Z,0.22
2023-05-09T17:22:40.946Z,0.20
2023-05-09T17:24:42.377Z,0.20
2023-05-09T17:26:43.839Z,0.20
2023-05-09T17:28:45.301Z,0.20
2023-05-09T17:30:47.091Z,0.20
2023-05-09T17:32:48.729Z,0.25
2023-05-09T17:34:50.337Z,0.20
2023-05-09T17:36:52.362Z,0.30
2023-05-09T17:38:53.775Z,0.20
2023-05-09T17:40:55.236Z,0.20
2023-05-09T17:42:56.962Z,0.22
2023-05-09T17:44:58.679Z,0.20
2023-05-09T17:47:01.047Z,0.20
2023-05-09T17:49:02.591Z,0.20
2023-05-09T17:51:04.113Z,0.20
2023-05-09T17:53:08.514Z,0.20
2023-05-09T17:55:10.401Z,0.20
2023-05-09T17:57:11.812Z,0.10
2023-05-09T17:59:13.358Z,0.20
2023-05-09T18:01:15.621Z,0.15
2023-05-09T18:03:17.345Z,0.10
2023-05-09T18:05:18.958Z,0.30
2023-05-09T18:07:20.750Z,0.20
2023-05-09T18:09:22.726Z,0.30
2023-05-09T18:11:24.558Z,0.30
2023-05-09T18:13:26.272Z,0.28
2023-05-09T18:15:27.835Z,0.32
2023-05-09T18:17:29.334Z,0.30
2023-05-09T18:19:30.754Z,0.30
2023-05-09T18:21:32.388Z,0.20
2023-05-09T18:23:34.026Z,0.20
2023-05-09T18:25:35.602Z,0.28
2023-05-09T18:27:37.163Z,0.15
2023-05-09T18:29:38.608Z,0.15
2023-05-09T18:31:41.470Z,0.10
2023-05-09T18:33:43.582Z,0.20
2023-05-09T18:35:45.412Z,0.20
2023-05-09T18:37:47.290Z,0.10
2023-05-09T18:39:48.926Z,0.20
2023-05-09T18:41:50.345Z,0.20
2023-05-09T18:43:51.968Z,0.20
2023-05-09T18:45:53.578Z,0.10
2023-05-09T18:47:55.117Z,0.20
2023-05-09T18:49:56.565Z,0.20
2023-05-09T18:51:59.951Z,0.20
2023-05-09T18:54:01.426Z,0.28
2023-05-09T18:56:03.062Z,0.20
2023-05-09T18:58:04.651Z,0.20
2023-05-09T19:00:07.074Z,0.30
2023-05-09T19:02:09.000Z,0.30
2023-05-09T19:04:11.682Z,0.20
2023-05-09T19:06:14.041Z,0.30
2023-05-09T19:08:15.639Z,0.20
2023-05-09T19:10:18.490Z,0.20
2023-05-09T19:12:20.131Z,0.20
2023-05-09T19:14:21.591Z,0.15
2023-05-09T19:16:24.816Z,0.17
2023-05-09T19:18:27.278Z,0.20
2023-05-09T19:20:32.111Z,0.30
2023-05-09T19:22:34.491Z,0.30
2023-05-09T19:24:36.027Z,0.30
2023-05-09T19:26:37.535Z,0.38
2023-05-09T19:28:38.900Z,0.30
2023-05-09T19:30:40.868Z,0.30
2023-05-09T19:32:42.652Z,0.22
2023-05-09T19:34:44.195Z,0.20
2023-05-09T19:36:46.290Z,0.20
2023-05-09T19:38:48.585Z,0.20
2023-05-09T19:40:50.856Z,0.17
2023-05-09T19:42:52.303Z,0.20
2023-05-09T19:44:53.774Z,0.20
2023-05-09T19:46:58.879Z,0.30
2023-05-09T19:49:01.543Z,0.20
2023-05-09T19:51:03.967Z,0.20
2023-05-09T19:53:05.984Z,0.20
2023-05-09T19:55:07.601Z,0.20
2023-05-09T19:57:09.151Z,0.13
2023-05-09T19:59:10.633Z,0.20
2023-05-09T20:01:12.697Z,0.20
2023-05-09T20:03:14.463Z,0.10
2023-05-09T20:05:16.130Z,0.20
2023-05-09T20:07:17.686Z,0.13
2023-05-09T20:09:20.938Z,0.20
2023-05-09T20:11:22.735Z,0.10
2023-05-09T20:13:24.282Z,0.30
2023-05-09T20:15:26.103Z,0.13
2023-05-09T20:17:27.683Z,0.20
2023-05-09T20:19:30.449Z,0.10
2023-05-09T20:21:32.004Z,0.10
2023-05-09T20:23:33.627Z,0.10
2023-05-09T20:25:35.238Z,0.20
2023-05-09T20:27:37.306Z,0.10
2023-05-09T20:29:38.919Z,0.10
2023-05-09T20:31:41.604Z,0.17
2023-05-09T20:33:43.184Z,0.20
2023-05-09T20:35:44.646Z,0.10
2023-05-09T20:37:46.324Z,0.10
2023-05-09T20:39:47.857Z,0.10
2023-05-09T20:41:50.131Z,0.10
2023-05-09T20:43:59.081Z,0.10
2023-05-09T20:46:00.916Z,0.10
2023-05-09T20:48:03.964Z,0.10
2023-05-09T20:50:05.666Z,0.10
2023-05-09T20:52:07.074Z,0.10
2023-05-09T20:54:08.595Z,0.10
2023-05-09T20:56:10.030Z,0.10
2023-05-09T20:58:14.772Z,0.10
2023-05-09T21:00:16.547Z,0.10
2023-05-09T21:02:18.289Z,0.10
2023-05-09T21:04:19.708Z,0.10
2023-05-09T21:06:21.396Z,0.10
2023-05-09T21:08:22.913Z,0.10
2023-05-09T21:10:24.382Z,0.10
2023-05-09T21:12:25.879Z,0.10
2023-05-09T21:14:27.283Z,0.10
2023-05-09T21:16:29.004Z,0.10
2023-05-09T21:18:30.517Z,0.10
2023-05-09T21:20:31.954Z,0.10
2023-05-09T21:22:33.375Z,0.10
2023-05-09T21:24:34.888Z,0.10
2023-05-09T21:26:36.471Z,0.10
2023-05-09T21:28:38.036Z,0.00
2023-05-09T21:30:39.546Z,0.10
2023-05-09T21:32:41.198Z,0.10
2023-05-09T21:34:42.715Z,0.10
2023-05-09T21:36:44.408Z,0.10
2023-05-09T21:38:45.821Z,0.10
2023-05-09T21:40:47.289Z,0.10
2023-05-09T21:42:48.816Z,0.10
2023-05-09T21:44:50.388Z,0.10
2023-05-09T21:46:51.892Z,0.00
2023-05-09T21:48:53.366Z,0.00
2023-05-09T21:50:54.816Z,0.10
2023-05-09T21:52:56.935Z,0.08
2023-05-09T21:54:58.860Z,0.08
2023-05-09T21:57:00.469Z,0.00
2023-05-09T21:59:01.926Z,0.15
2023-05-09T22:01:03.541Z,0.00
2023-05-09T22:03:05.061Z,0.03
2023-05-09T22:05:06.636Z,0.00
2023-05-09T22:07:08.543Z,0.10
2023-05-09T22:09:10.357Z,0.00
2023-05-09T22:11:14.159Z,0.10
2023-05-09T22:13:16.258Z,0.10
2023-05-09T22:15:17.937Z,0.10
2023-05-09T22:17:19.434Z,0.10
2023-05-09T22:19:21.060Z,0.10
2023-05-09T22:21:22.504Z,0.05
2023-05-09T22:23:23.908Z,0.10
2023-05-09T22:25:25.571Z,0.10
2023-05-09T22:27:27.075Z,0.10
2023-05-09T22:29:28.605Z,0.10
2023-05-09T22:31:30.024Z,0.00
2023-05-09T22:33:31.410Z,0.00
2023-05-09T22:35:32.840Z,0.08
2023-05-09T22:37:34.336Z,0.08
2023-05-09T22:39:35.849Z,0.10
2023-05-09T22:41:37.218Z,0.00
2023-05-09T22:43:39.799Z,0.00
2023-05-09T22:45:41.400Z,0.10
2023-05-09T22:47:42.930Z,0.00
2023-05-09T22:49:45.755Z,0.10
2023-05-09T22:51:47.545Z,0.08
2023-05-09T22:53:48.968Z,0.10
2023-05-09T22:55:52.459Z,0.08
2023-05-09T22:57:53.957Z,0.00
2023-05-09T22:59:55.352Z,0.00
2023-05-09T23:01:57.835Z,0.03
2023-05-09T23:03:59.394Z,0.10
2023-05-09T23:06:01.110Z,0.00
2023-05-09T23:08:02.765Z,0.00
2023-05-09T23:10:04.853Z,0.03
2023-05-09T23:12:06.917Z,0.10
2023-05-09T23:14:08.321Z,0.00
2023-05-09T23:16:10.279Z,0.10
2023-05-09T23:18:12.341Z,0.03
2023-05-09T23:20:14.246Z,0.10
2023-05-09T23:22:16.306Z,0.10
2023-05-09T23:24:17.729Z,0.00
2023-05-09T23:26:19.185Z,0.10
2023-05-09T23:28:24.850Z,0.10
2023-05-09T23:30:26.401Z,0.00
2023-05-09T23:32:27.876Z,0.00
2023-05-09T23:34:29.494Z,0.00
2023-05-09T23:36:31.474Z,0.00
2023-05-09T23:38:32.950Z,0.08
2023-05-09T23:40:34.392Z,0.00
2023-05-09T23:42:35.965Z,0.00
2023-05-09T23:44:37.760Z,0.00
2023-05-09T23:46:39.390Z,0.00
2023-05-09T23:48:41.476Z,0.03
2023-05-09T23:50:42.893Z,0.00
2023-05-09T23:52:44.428Z,0.00
2023-05-09T23:54:46.398Z,0.00
2023-05-09T23:56:48.722Z,0.08
2023-05-09T23:58:50.120Z,0.05
